Terminal Aerodrome Forecast
Issued by NWS Wichita, KS

Home | Current Version | Previous Version | Text Only | Print | Product List | Glossary On
Versions: 1 2 3 4 5 6 7 8 9 10 11 12 13 14 15 16 17 18 19 20 21 22
000
FTUS43 KICT 240300 AAB
TAFICT
TAF AMD
KICT 240355Z 2404/2424 16035G45KT 3SM BLDU FEW060 BKN100
     FM240500 17022G29KT P6SM SCT080 BKN250
     FM240900 20018KT P6SM TSRA BKN030CB
     FM241100 33021G30KT P6SM BKN025
     FM241700 33015KT P6SM SCT025 BKN080=

USA.gov is the U.S. government's official web portal to all federal, state and local government web resources and services.